createdAt,value
2023-04-04T00:02:23.468Z,50.62
2023-04-04T00:04:50.006Z,50.87
2023-04-04T00:07:16.981Z,50.90
2023-04-04T00:09:43.506Z,50.77
2023-04-04T00:12:10.078Z,51.28
2023-04-04T00:14:36.727Z,51.21
2023-04-04T00:17:03.270Z,51.44
2023-04-04T00:19:29.816Z,51.33
2023-04-04T00:21:56.480Z,51.29
2023-04-04T00:24:23.081Z,51.69
2023-04-04T00:26:49.601Z,51.30
2023-04-04T00:29:16.201Z,51.80
2023-04-04T00:31:42.867Z,51.74
2023-04-04T00:34:09.418Z,51.60
2023-04-04T00:36:36.216Z,51.90
2023-04-04T00:39:02.743Z,51.97
2023-04-04T00:41:30.137Z,51.78
2023-04-04T00:43:56.866Z,51.51
2023-04-04T00:46:25.264Z,52.03
2023-04-04T00:48:52.109Z,51.87
2023-04-04T00:51:18.617Z,51.98
2023-04-04T00:53:46.950Z,52.44
2023-04-04T00:56:13.988Z,52.19
2023-04-04T00:58:41.631Z,52.34
2023-04-04T01:01:08.587Z,52.46
2023-04-04T01:03:35.494Z,52.41
2023-04-04T01:06:02.742Z,52.89
2023-04-04T01:08:30.435Z,52.71
2023-04-04T01:10:57.642Z,52.95
2023-04-04T01:13:24.319Z,52.97
2023-04-04T01:15:51.279Z,52.94
2023-04-04T01:18:21.480Z,53.35
2023-04-04T01:20:57.748Z,53.26
2023-04-04T01:23:35.119Z,53.57
2023-04-04T01:26:03.725Z,53.65
2023-04-04T01:28:30.346Z,53.49
2023-04-04T01:30:59.887Z,53.95
2023-04-04T01:33:31.325Z,53.86
2023-04-04T01:36:03.831Z,54.24
2023-04-04T01:38:45.955Z,54.10
2023-04-04T01:41:13.094Z,54.03
2023-04-04T01:43:39.665Z,53.97
2023-04-04T01:46:06.768Z,54.16
2023-04-04T01:48:33.444Z,54.18
2023-04-04T01:51:01.954Z,54.32
2023-04-04T01:53:28.540Z,54.18
2023-04-04T01:55:55.141Z,54.29
2023-04-04T01:58:22.347Z,54.84
2023-04-04T02:00:48.866Z,54.66
2023-04-04T02:03:15.865Z,54.34
2023-04-04T02:05:42.782Z,54.55
2023-04-04T02:08:09.328Z,54.57
2023-04-04T02:10:35.915Z,54.73
2023-04-04T02:13:02.476Z,54.70
2023-04-04T02:15:29.129Z,54.76
2023-04-04T02:17:55.714Z,54.86
2023-04-04T02:20:22.686Z,54.84
2023-04-04T02:22:56.212Z,55.00
2023-04-04T02:25:24.461Z,54.83
2023-04-04T02:27:51.449Z,54.57
2023-04-04T02:30:19.423Z,54.59
2023-04-04T02:32:47.222Z,55.04
2023-04-04T02:35:13.902Z,54.87
2023-04-04T02:37:40.665Z,54.83
2023-04-04T02:40:08.062Z,55.11
2023-04-04T02:42:34.586Z,55.20
2023-04-04T02:45:01.331Z,55.35
2023-04-04T02:47:28.660Z,55.61
2023-04-04T02:49:55.241Z,55.36
2023-04-04T02:52:22.373Z,55.85
2023-04-04T02:54:49.838Z,55.62
2023-04-04T02:57:16.380Z,55.85
2023-04-04T02:59:43.191Z,56.35
2023-04-04T03:02:09.713Z,56.33
2023-04-04T03:04:36.814Z,56.28
2023-04-04T03:07:03.804Z,56.52
2023-04-04T03:09:30.369Z,56.80
2023-04-04T03:11:57.188Z,57.08
2023-04-04T03:14:23.882Z,57.18
2023-04-04T03:16:50.609Z,57.66
2023-04-04T03:19:17.305Z,57.56
2023-04-04T03:21:43.853Z,57.87
2023-04-04T03:24:10.424Z,58.09
2023-04-04T03:26:37.497Z,58.04
2023-04-04T03:29:04.809Z,57.96
2023-04-04T03:31:31.572Z,58.23
2023-04-04T03:33:59.903Z,58.16
2023-04-04T03:36:26.841Z,58.45
2023-04-04T03:38:53.493Z,58.14
2023-04-04T03:41:20.063Z,58.23
2023-04-04T03:43:46.605Z,58.23
2023-04-04T03:46:13.195Z,58.13
2023-04-04T03:48:39.916Z,58.29
2023-04-04T03:51:06.490Z,58.59
2023-04-04T03:53:33.192Z,58.40
2023-04-04T03:55:59.892Z,58.45
2023-04-04T03:58:28.324Z,58.65
2023-04-04T04:00:55.115Z,58.76
2023-04-04T04:03:21.883Z,58.63
2023-04-04T04:05:48.670Z,58.87
2023-04-04T04:08:15.209Z,58.87
2023-04-04T04:10:41.963Z,58.70
2023-04-04T04:13:08.873Z,58.62
2023-04-04T04:15:35.591Z,58.68
2023-04-04T04:18:02.139Z,58.69
2023-04-04T04:20:28.693Z,58.80
2023-04-04T04:22:55.374Z,58.78
2023-04-04T04:25:22.134Z,59.04
2023-04-04T04:27:49.011Z,58.80
2023-04-04T04:30:15.631Z,59.06
2023-04-04T04:32:42.363Z,58.95
2023-04-04T04:35:09.855Z,59.26
2023-04-04T04:37:36.586Z,59.30
2023-04-04T04:40:03.422Z,59.39
2023-04-04T04:42:30.116Z,59.53
2023-04-04T04:44:56.711Z,59.63
2023-04-04T04:47:23.636Z,59.69
2023-04-04T04:49:50.215Z,59.77
2023-04-04T04:52:16.771Z,59.99
2023-04-04T04:54:45.974Z,62.94
2023-04-04T04:57:12.568Z,65.12
2023-04-04T04:59:41.307Z,62.85
2023-04-04T05:02:08.019Z,59.96
2023-04-04T05:04:34.911Z,55.96
2023-04-04T05:07:01.665Z,55.22
2023-04-04T05:09:28.258Z,55.09
2023-04-04T05:11:54.822Z,55.46
2023-04-04T05:14:21.374Z,55.96
2023-04-04T05:16:49.040Z,56.42
2023-04-04T05:19:15.843Z,56.73
2023-04-04T05:21:43.279Z,57.00
2023-04-04T05:24:10.170Z,57.35
2023-04-04T05:26:36.705Z,57.61
2023-04-04T05:29:03.207Z,57.58
2023-04-04T05:31:29.815Z,57.99
2023-04-04T05:33:56.670Z,58.09
2023-04-04T05:36:23.411Z,58.41
2023-04-04T05:38:50.099Z,58.39
2023-04-04T05:41:16.642Z,58.92
2023-04-04T05:43:43.220Z,58.90
2023-04-04T05:46:09.945Z,58.90
2023-04-04T05:48:36.585Z,59.00
2023-04-04T05:51:03.268Z,59.16
2023-04-04T05:53:30.281Z,58.69
2023-04-04T05:55:58.668Z,58.94
2023-04-04T05:58:26.425Z,59.19
2023-04-04T06:00:53.035Z,59.14
2023-04-04T06:03:21.828Z,59.25
2023-04-04T06:05:53.014Z,59.17
2023-04-04T06:08:19.806Z,59.45
2023-04-04T06:10:46.435Z,59.18
2023-04-04T06:13:13.008Z,59.17
2023-04-04T06:15:39.544Z,59.19
2023-04-04T06:18:06.099Z,59.21
2023-04-04T06:20:32.704Z,59.23
2023-04-04T06:23:02.060Z,59.08
2023-04-04T06:25:28.715Z,59.43
2023-04-04T06:27:55.568Z,58.95
2023-04-04T06:30:22.105Z,59.16
2023-04-04T06:32:49.393Z,58.75
2023-04-04T06:35:18.120Z,58.66
2023-04-04T06:37:46.158Z,58.60
2023-04-04T06:40:12.818Z,58.28
2023-04-04T06:42:39.374Z,58.26
2023-04-04T06:45:06.430Z,58.08
2023-04-04T06:47:33.014Z,57.68
2023-04-04T06:49:59.650Z,57.23
2023-04-04T06:52:26.669Z,57.10
2023-04-04T06:54:53.201Z,56.93
2023-04-04T06:57:19.768Z,56.45
2023-04-04T06:59:46.477Z,55.93
2023-04-04T07:02:13.115Z,55.80
2023-04-04T07:04:40.156Z,55.65
2023-04-04T07:07:06.728Z,55.39
2023-04-04T07:09:33.301Z,55.59
2023-04-04T07:11:59.922Z,54.77
2023-04-04T07:14:26.511Z,54.55
2023-04-04T07:16:53.395Z,54.22
2023-04-04T07:19:19.995Z,53.84
2023-04-04T07:21:46.505Z,54.00
2023-04-04T07:24:13.028Z,53.47
2023-04-04T07:26:40.909Z,53.32
2023-04-04T07:29:08.124Z,53.30
2023-04-04T07:31:34.796Z,53.23
2023-04-04T07:34:02.155Z,52.71
2023-04-04T07:36:28.671Z,52.71
2023-04-04T07:38:55.523Z,52.28
2023-04-04T07:41:22.681Z,52.42
2023-04-04T07:43:49.667Z,52.27
2023-04-04T07:46:16.887Z,52.09
2023-04-04T07:48:44.064Z,52.17
2023-04-04T07:51:10.634Z,52.08
2023-04-04T07:53:37.670Z,51.41
2023-04-04T07:56:06.595Z,51.59
2023-04-04T07:58:36.690Z,50.49
2023-04-04T08:01:04.064Z,51.04
2023-04-04T08:03:30.893Z,51.21
2023-04-04T08:05:57.636Z,50.80
2023-04-04T08:08:24.292Z,50.51
2023-04-04T08:10:50.855Z,50.09
2023-04-04T08:13:17.347Z,50.34
2023-04-04T08:15:44.161Z,49.82
2023-04-04T08:18:11.178Z,50.20
2023-04-04T08:20:38.211Z,50.31
2023-04-04T08:23:05.059Z,49.92
2023-04-04T08:25:31.631Z,49.50
2023-04-04T08:27:58.327Z,48.81
2023-04-04T08:30:24.996Z,49.57
2023-04-04T08:32:51.590Z,48.00
2023-04-04T08:35:18.290Z,48.34
2023-04-04T08:37:46.330Z,48.19
2023-04-04T08:40:13.481Z,48.67
2023-04-04T08:42:44.411Z,48.88
2023-04-04T08:45:12.420Z,48.38
2023-04-04T08:47:41.107Z,47.45
2023-04-04T08:50:08.594Z,46.59
2023-04-04T08:52:35.889Z,45.35
2023-04-04T08:55:05.545Z,44.93
2023-04-04T08:57:33.570Z,45.71
2023-04-04T09:00:00.625Z,44.37
2023-04-04T09:02:34.281Z,44.07
2023-04-04T09:05:06.720Z,44.02
2023-04-04T09:07:34.344Z,43.70
2023-04-04T09:10:04.097Z,43.86
2023-04-04T09:12:32.562Z,43.73
2023-04-04T09:15:00.702Z,42.86
2023-04-04T09:17:27.482Z,43.19
2023-04-04T09:19:54.288Z,42.61
2023-04-04T09:22:21.078Z,42.81
2023-04-04T09:24:48.429Z,42.66
2023-04-04T09:27:16.421Z,42.34
2023-04-04T09:29:43.000Z,42.57
2023-04-04T09:32:13.994Z,41.95
2023-04-04T09:34:41.697Z,42.46
2023-04-04T09:37:08.425Z,42.41
2023-04-04T09:39:35.585Z,41.88
2023-04-04T09:42:02.413Z,42.06
2023-04-04T09:44:33.418Z,42.18
2023-04-04T09:47:31.742Z,41.88
2023-04-04T09:50:04.195Z,40.83
2023-04-04T09:52:35.802Z,41.56
2023-04-04T09:55:04.719Z,41.82
2023-04-04T09:57:38.043Z,41.70
2023-04-04T10:00:09.630Z,40.85
2023-04-04T10:02:46.185Z,40.39
2023-04-04T10:05:12.869Z,40.60
2023-04-04T10:07:40.408Z,40.98
2023-04-04T10:10:09.139Z,41.35
2023-04-04T10:12:37.141Z,40.60
2023-04-04T10:15:04.020Z,40.13
2023-04-04T10:17:31.920Z,40.40
2023-04-04T10:20:04.424Z,39.94
2023-04-04T10:22:35.875Z,40.59
2023-04-04T10:25:03.838Z,40.36
2023-04-04T10:27:30.642Z,39.78
2023-04-04T10:29:57.316Z,39.69
2023-04-04T10:32:57.704Z,39.55
2023-04-04T10:35:25.240Z,39.51
2023-04-04T10:37:59.167Z,39.17
2023-04-04T10:40:34.630Z,39.06
2023-04-04T10:43:04.183Z,38.97
2023-04-04T10:45:32.167Z,38.91
2023-04-04T10:48:00.284Z,39.97
2023-04-04T10:50:26.958Z,39.54
2023-04-04T10:52:53.562Z,38.06
2023-04-04T10:55:20.554Z,38.17
2023-04-04T10:57:51.949Z,38.11
2023-04-04T11:00:20.302Z,38.11
2023-04-04T11:02:58.400Z,38.30
2023-04-04T11:05:42.537Z,38.47
2023-04-04T11:08:11.089Z,37.75
2023-04-04T11:10:41.333Z,38.04
2023-04-04T11:13:15.956Z,38.13
2023-04-04T11:15:56.707Z,37.98
2023-04-04T11:18:43.725Z,37.55
2023-04-04T11:21:13.895Z,36.65
2023-04-04T11:23:49.363Z,37.80
2023-04-04T11:26:35.441Z,37.85
2023-04-04T11:29:04.579Z,38.00
2023-04-04T11:31:39.155Z,37.90
2023-04-04T11:34:13.431Z,38.01
2023-04-04T11:36:40.760Z,38.00
2023-04-04T11:39:17.007Z,37.55
2023-04-04T11:42:12.126Z,36.94
2023-04-04T11:44:45.692Z,37.44
2023-04-04T11:47:13.596Z,37.13
2023-04-04T11:49:45.780Z,37.07
2023-04-04T11:52:13.250Z,37.62
2023-04-04T11:54:41.667Z,37.03
2023-04-04T11:57:11.614Z,35.59
2023-04-04T11:59:46.119Z,35.19
2023-04-04T12:02:15.721Z,36.22
2023-04-04T12:04:46.041Z,36.08
2023-04-04T12:07:14.058Z,37.14
2023-04-04T12:09:42.298Z,36.59
2023-04-04T12:12:18.711Z,35.99
2023-04-04T12:14:45.614Z,35.53
2023-04-04T12:17:12.229Z,35.62
2023-04-04T12:19:40.567Z,34.41
2023-04-04T12:22:08.494Z,34.52
2023-04-04T12:24:36.386Z,33.97
2023-04-04T12:27:03.659Z,34.52
2023-04-04T12:29:36.516Z,35.00
2023-04-04T12:32:04.669Z,34.21
2023-04-04T12:34:33.895Z,34.34
2023-04-04T12:37:01.890Z,35.55
2023-04-04T12:39:29.890Z,34.56
2023-04-04T12:42:01.281Z,34.46
2023-04-04T12:44:36.396Z,34.70
2023-04-04T12:47:05.633Z,34.73
2023-04-04T12:49:43.097Z,34.66
2023-04-04T12:52:21.846Z,35.16
2023-04-04T12:54:59.164Z,35.03
2023-04-04T12:57:34.188Z,34.66
2023-04-04T13:00:02.264Z,34.49
2023-04-04T13:02:29.683Z,34.79
2023-04-04T13:04:58.832Z,34.43
2023-04-04T13:07:40.060Z,33.83
2023-04-04T13:10:07.534Z,33.56
2023-04-04T13:12:58.345Z,32.19
2023-04-04T13:15:53.224Z,33.22
2023-04-04T13:18:25.213Z,33.39
2023-04-04T13:20:52.777Z,33.50
2023-04-04T13:23:19.970Z,33.62
2023-04-04T13:25:46.651Z,32.74
2023-04-04T13:28:14.378Z,32.77
2023-04-04T13:30:46.486Z,32.96
2023-04-04T13:33:13.019Z,33.45
2023-04-04T13:35:42.388Z,32.36
2023-04-04T13:38:09.023Z,32.25
2023-04-04T13:40:35.720Z,32.72
2023-04-04T13:43:02.297Z,31.41
2023-04-04T13:45:28.836Z,31.09
2023-04-04T13:47:55.596Z,31.48
2023-04-04T13:50:22.971Z,30.43
2023-04-04T13:52:52.375Z,30.83
2023-04-04T13:55:19.015Z,30.21
2023-04-04T13:57:45.540Z,29.25
2023-04-04T14:00:13.158Z,29.22
2023-04-04T14:02:39.962Z,28.84
2023-04-04T14:05:08.082Z,28.31
2023-04-04T14:07:34.709Z,27.89
2023-04-04T14:10:01.419Z,27.57
2023-04-04T14:12:28.089Z,26.25
2023-04-04T14:14:54.627Z,27.53
2023-04-04T14:17:21.309Z,26.03
2023-04-04T14:19:47.842Z,25.43
2023-04-04T14:22:14.394Z,25.60
2023-04-04T14:24:41.336Z,25.65
2023-04-04T14:27:07.875Z,24.67
2023-04-04T14:29:34.432Z,24.39
2023-04-04T14:32:01.413Z,25.18
2023-04-04T14:34:28.120Z,25.83
2023-04-04T14:36:54.752Z,24.20
2023-04-04T14:39:21.609Z,24.90
2023-04-04T14:41:48.558Z,23.87
2023-04-04T14:44:15.396Z,23.43
2023-04-04T14:46:41.923Z,24.18
2023-04-04T14:49:08.461Z,23.04
2023-04-04T14:51:35.024Z,22.76
2023-04-04T14:54:01.647Z,22.35
2023-04-04T14:56:28.269Z,22.06
2023-04-04T14:58:54.903Z,21.18
2023-04-04T15:01:22.814Z,21.87
2023-04-04T15:03:49.936Z,22.11
2023-04-04T15:06:16.786Z,21.45
2023-04-04T15:08:43.335Z,21.27
2023-04-04T15:11:10.145Z,20.68
2023-04-04T15:13:36.779Z,20.55
2023-04-04T15:16:04.274Z,20.75
2023-04-04T15:18:31.036Z,20.80
2023-04-04T15:20:58.662Z,20.84
2023-04-04T15:23:25.366Z,20.59
2023-04-04T15:25:51.945Z,20.73
2023-04-04T15:28:18.462Z,20.45
2023-04-04T15:30:44.984Z,20.27
2023-04-04T15:33:11.617Z,20.44
2023-04-04T15:35:38.228Z,20.09
2023-04-04T15:38:04.741Z,19.81
2023-04-04T15:40:31.682Z,19.96
2023-04-04T15:42:58.289Z,20.11
2023-04-04T15:45:25.010Z,20.60
2023-04-04T15:47:51.615Z,20.49
2023-04-04T15:50:18.283Z,19.94
2023-04-04T15:52:44.882Z,20.68
2023-04-04T15:55:13.669Z,20.40
2023-04-04T15:57:40.668Z,20.37
2023-04-04T16:00:07.788Z,20.21
2023-04-04T16:02:34.704Z,19.58
2023-04-04T16:05:01.673Z,19.85
2023-04-04T16:07:28.283Z,19.74
2023-04-04T16:09:55.272Z,19.72
2023-04-04T16:12:22.491Z,20.40
2023-04-04T16:14:49.212Z,20.62
2023-04-04T16:17:15.788Z,20.93
2023-04-04T16:19:43.516Z,20.76
2023-04-04T16:22:10.097Z,20.25
2023-04-04T16:24:37.279Z,20.38
2023-04-04T16:27:03.975Z,20.29
2023-04-04T16:29:31.256Z,20.87
2023-04-04T16:31:57.927Z,21.25
2023-04-04T16:34:24.494Z,21.69
2023-04-04T16:36:51.181Z,22.05
2023-04-04T16:39:18.056Z,22.08
2023-04-04T16:41:44.588Z,22.48
2023-04-04T16:44:12.329Z,22.77
2023-04-04T16:46:38.951Z,25.08
2023-04-04T16:49:05.622Z,25.88
2023-04-04T16:51:32.340Z,26.57
2023-04-04T16:53:58.836Z,27.35
2023-04-04T16:56:25.564Z,28.18
2023-04-04T16:58:52.172Z,29.01
2023-04-04T17:01:22.572Z,28.90
2023-04-04T17:03:49.517Z,30.67
2023-04-04T17:06:16.164Z,31.37
2023-04-04T17:08:45.076Z,31.36
2023-04-04T17:11:13.119Z,31.99
2023-04-04T17:13:39.708Z,31.82
2023-04-04T17:16:06.648Z,31.74
2023-04-04T17:18:34.178Z,32.16
2023-04-04T17:21:01.411Z,32.26
2023-04-04T17:23:27.989Z,32.69
2023-04-04T17:25:54.578Z,32.93
2023-04-04T17:28:21.611Z,32.59
2023-04-04T17:30:48.220Z,33.23
2023-04-04T17:33:14.850Z,33.52
2023-04-04T17:35:41.430Z,34.06
2023-04-04T17:38:08.099Z,34.05
2023-04-04T17:40:36.445Z,33.74
2023-04-04T17:43:03.118Z,33.69
2023-04-04T17:45:29.763Z,34.00
2023-04-04T17:47:56.332Z,34.52
2023-04-04T17:50:23.001Z,34.44
2023-04-04T17:52:49.575Z,34.65
2023-04-04T17:55:16.605Z,34.53
2023-04-04T17:57:44.967Z,34.87
2023-04-04T18:00:12.365Z,35.50
2023-04-04T18:02:38.973Z,35.40
2023-04-04T18:05:05.891Z,35.50
2023-04-04T18:07:32.429Z,35.46
2023-04-04T18:09:58.926Z,35.66
2023-04-04T18:12:30.039Z,36.66
2023-04-04T18:14:56.753Z,36.31
2023-04-04T18:17:23.827Z,36.73
2023-04-04T18:19:50.387Z,37.02
2023-04-04T18:22:17.740Z,37.04
2023-04-04T18:24:44.792Z,37.58
2023-04-04T18:27:12.317Z,37.37
2023-04-04T18:29:39.020Z,37.33
2023-04-04T18:32:05.663Z,37.18
2023-04-04T18:34:33.516Z,38.00
2023-04-04T18:37:00.111Z,38.35
2023-04-04T18:39:27.782Z,38.27
2023-04-04T18:41:54.797Z,38.75
2023-04-04T18:44:21.672Z,39.29
2023-04-04T18:46:48.507Z,38.95
2023-04-04T18:49:15.101Z,38.91
2023-04-04T18:51:42.014Z,38.95
2023-04-04T18:54:08.599Z,39.36
2023-04-04T18:56:36.117Z,39.42
2023-04-04T18:59:03.685Z,39.68
2023-04-04T19:01:31.588Z,40.60
2023-04-04T19:03:58.369Z,41.10
2023-04-04T19:06:27.515Z,42.07
2023-04-04T19:08:57.519Z,42.78
2023-04-04T19:11:25.291Z,43.25
2023-04-04T19:13:51.888Z,43.92
2023-04-04T19:16:18.785Z,43.89
2023-04-04T19:18:45.355Z,44.25
2023-04-04T19:21:12.017Z,44.82
2023-04-04T19:23:38.581Z,44.65
2023-04-04T19:26:06.566Z,44.83
2023-04-04T19:28:33.580Z,45.28
2023-04-04T19:31:02.057Z,45.97
2023-04-04T19:33:28.738Z,45.62
2023-04-04T19:35:59.085Z,46.32
2023-04-04T19:38:32.345Z,46.38
2023-04-04T19:41:01.702Z,46.04
2023-04-04T19:43:29.618Z,46.82
2023-04-04T19:45:58.392Z,46.35
2023-04-04T19:48:55.389Z,46.65
2023-04-04T19:51:21.933Z,47.07
2023-04-04T19:53:56.877Z,46.87
2023-04-04T19:56:28.433Z,46.57
2023-04-04T19:59:00.499Z,47.06
2023-04-04T20:01:28.181Z,46.90
2023-04-04T20:04:03.940Z,47.34
2023-04-04T20:06:34.292Z,47.63
2023-04-04T20:09:03.352Z,47.67
2023-04-04T20:11:35.560Z,48.29
2023-04-04T20:14:06.217Z,47.99
2023-04-04T20:16:33.448Z,48.07
2023-04-04T20:19:02.205Z,48.69
2023-04-04T20:21:32.016Z,48.28
2023-04-04T20:24:04.470Z,48.61
2023-04-04T20:26:34.219Z,48.58
2023-04-04T20:29:01.319Z,48.99
2023-04-04T20:31:27.870Z,48.68
2023-04-04T20:33:54.932Z,49.27
2023-04-04T20:36:21.790Z,48.67
2023-04-04T20:38:48.494Z,49.02
2023-04-04T20:41:19.572Z,49.69
2023-04-04T20:43:56.727Z,49.89
2023-04-04T20:46:25.563Z,50.03
2023-04-04T20:48:56.334Z,49.55
2023-04-04T20:51:27.329Z,50.25
2023-04-04T20:53:56.143Z,49.69
2023-04-04T20:56:41.273Z,50.02
2023-04-04T20:59:31.891Z,50.62
2023-04-04T21:02:13.285Z,50.74
2023-04-04T21:04:41.257Z,50.40
2023-04-04T21:07:08.438Z,50.05
2023-04-04T21:09:35.019Z,50.08
2023-04-04T21:12:02.156Z,50.36
2023-04-04T21:14:35.868Z,50.68
2023-04-04T21:17:04.876Z,51.14
2023-04-04T21:19:31.456Z,50.99
2023-04-04T21:21:58.131Z,51.26
2023-04-04T21:24:26.292Z,51.83
2023-04-04T21:26:53.169Z,51.54
2023-04-04T21:29:24.826Z,51.58
2023-04-04T21:31:53.978Z,51.48
2023-04-04T21:34:22.617Z,51.47
2023-04-04T21:36:51.542Z,51.79
2023-04-04T21:39:24.926Z,51.72
2023-04-04T21:41:56.617Z,52.12
2023-04-04T21:44:23.880Z,51.32
2023-04-04T21:46:50.696Z,51.48
2023-04-04T21:49:18.073Z,51.10
2023-04-04T21:51:44.608Z,51.61
2023-04-04T21:54:11.352Z,51.99
2023-04-04T21:56:38.519Z,51.97
2023-04-04T21:59:08.277Z,52.10
2023-04-04T22:01:37.210Z,52.02
2023-04-04T22:04:04.014Z,52.27
2023-04-04T22:06:31.114Z,52.39
2023-04-04T22:08:59.334Z,52.96
2023-04-04T22:11:27.194Z,53.42
2023-04-04T22:14:03.859Z,53.23
2023-04-04T22:16:31.589Z,52.54
2023-04-04T22:18:58.820Z,52.55
2023-04-04T22:21:28.114Z,51.81
2023-04-04T22:24:00.626Z,51.90
2023-04-04T22:26:33.262Z,51.71
2023-04-04T22:29:05.395Z,51.91
2023-04-04T22:31:34.630Z,51.87
2023-04-04T22:34:03.176Z,52.38
2023-04-04T22:36:30.195Z,52.35
2023-04-04T22:38:57.892Z,52.52
2023-04-04T22:41:27.686Z,52.61
2023-04-04T22:43:54.697Z,52.54
2023-04-04T22:46:21.396Z,52.77
2023-04-04T22:48:48.299Z,53.04
2023-04-04T22:51:17.440Z,53.51
2023-04-04T22:53:44.447Z,52.96
2023-04-04T22:56:11.483Z,53.07
2023-04-04T22:58:38.507Z,53.34
2023-04-04T23:01:05.184Z,53.17
2023-04-04T23:03:31.977Z,53.52
2023-04-04T23:05:58.590Z,53.45
2023-04-04T23:08:25.340Z,53.38
2023-04-04T23:10:51.885Z,53.79
2023-04-04T23:13:18.425Z,54.01
2023-04-04T23:15:45.483Z,54.18
2023-04-04T23:18:13.296Z,54.40
2023-04-04T23:20:40.875Z,54.69
2023-04-04T23:23:07.634Z,54.60
2023-04-04T23:25:34.273Z,54.57
2023-04-04T23:28:00.882Z,54.95
2023-04-04T23:30:28.508Z,55.18
2023-04-04T23:32:55.058Z,55.17
2023-04-04T23:35:21.608Z,55.05
2023-04-04T23:37:48.785Z,54.78
2023-04-04T23:40:15.473Z,55.02
2023-04-04T23:42:42.073Z,54.69
2023-04-04T23:45:09.554Z,55.11
2023-04-04T23:47:37.092Z,55.15
2023-04-04T23:50:04.172Z,55.43
2023-04-04T23:52:30.712Z,55.82
2023-04-04T23:54:57.259Z,55.37
2023-04-04T23:57:24.166Z,55.81
2023-04-04T23:59:50.800Z,55.63
